Terminal Aerodrome Forecast
Issued by NWS

Home | Current Version | Previous Version | Text Only | Print | Product List | Glossary On
Versions: 1 2 3 4 5 6 7 8 9 10 11 12 13 14
000
FTUS45 KSLC 200549
TAFBCE
TAF
KBCE 200549Z 2006/2106 16010KT P6SM VCSH SCT030 BKN060
     FM201300 22014KT 2SM -SN SCT009 BKN020
     FM201700 22015G23KT 1SM -SN BKN008 OVC020
     FM210000 31015G23KT P6SM VCSH SCT015 BKN035=

USA.gov is the U.S. government's official web portal to all federal, state and local government web resources and services.